Time;durP1;ratioP1;P1;durP2;ratioP2;P2;SDS_P1;SDS_P2;PMS_P1;PMS_P2;Temp;Humidity;BMP_temperature;BMP_pressure;BME280_temperature;BME280_humidity;BME280_pressure;Samples;Min_cycle;Max_cycle;Signal;HPM_P1;HPM_P2
2023/05/19 00:01:07;;;;;;;3.25;2.20;;;;;;;15.16;100.00;99815.09;5140569;27;20037;-63
2023/05/19 00:03:39;;;;;;;2.90;2.25;;;;;;;15.09;100.00;99807.03;5141381;27;20051;-63
2023/05/19 00:06:05;;;;;;;3.53;2.35;;;;;;;15.16;100.00;99812.44;5141210;27;20035;-63
2023/05/19 00:08:32;;;;;;;2.53;1.85;;;;;;;15.17;100.00;99800.75;5140435;27;20050;-63
2023/05/19 00:10:58;;;;;;;4.85;2.10;;;;;;;15.17;100.00;99798.91;5140653;27;20064;-63
2023/05/19 00:13:24;;;;;;;3.75;2.08;;;;;;;15.17;100.00;99793.56;5140875;27;20053;-63
2023/05/19 00:15:49;;;;;;;4.28;2.22;;;;;;;15.15;100.00;99800.94;5140047;27;20058;-63
2023/05/19 00:18:16;;;;;;;3.05;2.50;;;;;;;15.15;100.00;99797.44;5141236;27;20035;-63
2023/05/19 00:20:42;;;;;;;3.67;2.85;;;;;;;15.15;100.00;99798.28;5140838;27;20228;-63
2023/05/19 00:23:09;;;;;;;3.08;2.35;;;;;;;15.13;100.00;99794.97;5139772;27;20055;-63
2023/05/19 00:25:34;;;;;;;4.68;2.60;;;;;;;15.18;100.00;99787.22;5140820;27;20031;-63
2023/05/19 00:28:01;;;;;;;3.95;2.50;;;;;;;15.16;100.00;99789.25;5140458;27;20266;-63
2023/05/19 00:30:26;;;;;;;5.32;2.70;;;;;;;15.16;100.00;99791.09;5140474;27;20031;-63
2023/05/19 00:32:52;;;;;;;3.35;2.30;;;;;;;15.13;100.00;99791.47;5140245;27;20091;-63
2023/05/19 00:35:18;;;;;;;4.97;2.50;;;;;;;15.11;100.00;99790.84;5140169;27;20071;-63
2023/05/19 00:37:44;;;;;;;3.30;2.20;;;;;;;15.13;100.00;99786.13;5140318;27;20035;-63
2023/05/19 00:40:09;;;;;;;3.28;2.13;;;;;;;15.13;100.00;99788.81;5140191;27;20035;-63
2023/05/19 00:42:35;;;;;;;4.75;2.50;;;;;;;15.13;100.00;99786.13;5140076;27;20050;-63
2023/05/19 00:45:00;;;;;;;2.97;2.30;;;;;;;15.13;100.00;99784.28;5139866;27;20023;-63
2023/05/19 00:47:25;;;;;;;4.63;2.78;;;;;;;15.13;100.00;99783.47;5140863;27;20050;-63
2023/05/19 00:49:51;;;;;;;3.20;2.22;;;;;;;15.11;99.95;99778.31;5140584;27;20062;-63
2023/05/19 00:52:16;;;;;;;6.65;2.42;;;;;;;15.09;99.92;99780.34;5139364;27;20027;-63
2023/05/19 00:54:44;;;;;;;3.75;2.33;;;;;;;15.05;99.70;99778.25;5140469;27;20097;-63
2023/05/19 00:57:10;;;;;;;3.47;2.42;;;;;;;15.08;100.00;99783.22;5140359;27;20073;-63
2023/05/19 00:59:36;;;;;;;5.07;2.35;;;;;;;15.09;99.58;99783.03;5139296;27;20039;-63
2023/05/19 01:02:01;;;;;;;3.40;2.17;;;;;;;15.09;99.43;99782.19;5139483;27;20052;-63
2023/05/19 01:04:28;;;;;;;3.80;2.60;;;;;;;15.11;99.78;99774.84;5139902;27;20046;-63
2023/05/19 01:06:55;;;;;;;2.28;2.00;;;;;;;15.06;99.58;99774.59;5139296;27;20117;-63
2023/05/19 01:09:21;;;;;;;3.15;2.13;;;;;;;15.07;99.60;99777.06;5140206;27;20224;-63
2023/05/19 01:11:49;;;;;;;3.65;2.35;;;;;;;15.04;99.87;99781.94;5139570;27;20038;-63
2023/05/19 01:14:16;;;;;;;4.90;2.55;;;;;;;15.07;99.81;99782.38;5139502;27;20031;-63
2023/05/19 01:17:06;;;;;;;4.78;2.38;;;;;;;15.04;99.39;99781.94;5140068;27;20201;-63
2023/05/19 01:20:03;;;;;;;3.65;2.70;;;;;;;15.06;99.31;99783.41;5137748;27;20038;-63
2023/05/19 01:22:41;;;;;;;2.50;2.30;;;;;;;15.06;99.40;99782.59;5139197;27;20221;-63
2023/05/19 01:25:25;;;;;;;3.97;2.70;;;;;;;15.02;99.28;99780.28;5139856;27;20394;-63
2023/05/19 01:28:25;;;;;;;3.40;2.33;;;;;;;15.01;99.38;99777.81;5139708;27;20388;-64
2023/05/19 01:30:56;;;;;;;2.88;2.05;;;;;;;14.98;99.25;99784.34;5133405;27;20270;-63
2023/05/19 01:33:23;;;;;;;2.55;2.35;;;;;;;15.02;99.32;99782.13;5140099;27;20031;-63
2023/05/19 01:35:50;;;;;;;2.70;2.47;;;;;;;15.02;99.40;99782.13;5121463;27;20035;-63
2023/05/19 01:38:19;;;;;;;3.15;2.40;;;;;;;15.04;99.24;99784.63;5139428;27;20027;-63
2023/05/19 01:40:46;;;;;;;3.60;2.33;;;;;;;15.04;99.01;99785.44;5139044;27;20035;-63
2023/05/19 01:43:19;;;;;;;6.75;3.92;;;;;;;15.07;98.90;99789.56;5138802;27;20046;-63
2023/05/19 01:45:45;;;;;;;3.13;2.25;;;;;;;15.06;98.38;99787.91;5129812;27;20039;-63
2023/05/19 01:48:11;;;;;;;3.22;2.40;;;;;;;14.98;99.04;99788.88;5139342;27;20047;-63
2023/05/19 01:50:37;;;;;;;3.25;2.45;;;;;;;14.98;98.76;99784.34;5139325;27;20107;-63
2023/05/19 01:53:03;;;;;;;3.03;2.60;;;;;;;15.02;99.16;99787.47;5139183;27;20213;-63
2023/05/19 01:55:28;;;;;;;4.50;2.78;;;;;;;14.98;98.84;99788.88;5139285;27;20031;-63
2023/05/19 01:58:15;;;;;;;3.92;2.60;;;;;;;14.95;98.63;99795.41;5138558;27;20134;-63
2023/05/19 02:00:56;;;;;;;4.43;2.50;;;;;;;14.95;98.83;99784.72;5138490;27;20054;-63
2023/05/19 02:03:35;;;;;;;4.30;2.40;;;;;;;14.94;98.54;99788.41;5137728;27;20043;-63
2023/05/19 02:06:19;;;;;;;3.08;2.20;;;;;;;14.93;98.55;99785.94;5137812;27;20266;-63
2023/05/19 02:08:55;;;;;;;3.80;3.05;;;;;;;14.92;98.81;99779.78;5138201;27;20039;-63
2023/05/19 02:11:36;;;;;;;3.75;2.30;;;;;;;14.90;98.60;99784.47;5135222;27;20055;-63
2023/05/19 02:14:23;;;;;;;3.53;2.53;;;;;;;14.87;98.85;99790.19;5138381;28;20355;-63
2023/05/19 02:16:49;;;;;;;5.22;2.80;;;;;;;14.87;98.95;99790.19;5138446;27;20278;-63
2023/05/19 02:19:22;;;;;;;3.80;2.45;;;;;;;14.83;98.43;99788.91;5138556;28;20035;-64
2023/05/19 02:21:48;;;;;;;4.32;2.80;;;;;;;14.79;98.67;99781.47;5138760;27;20039;-63
2023/05/19 02:24:13;;;;;;;3.60;2.38;;;;;;;14.83;98.81;99796.09;5128195;27;20066;-63
2023/05/19 02:26:39;;;;;;;2.58;2.38;;;;;;;14.83;98.91;99786.25;5122956;28;20031;-63
2023/05/19 02:29:04;;;;;;;3.55;2.70;;;;;;;14.84;98.59;99795.06;5119510;28;20024;-63
2023/05/19 02:31:30;;;;;;;3.65;2.53;;;;;;;14.83;98.69;99796.09;5122591;28;20035;-63
2023/05/19 02:33:55;;;;;;;3.83;2.90;;;;;;;14.83;98.70;99796.09;5122846;28;20240;-63
2023/05/19 02:36:21;;;;;;;4.93;2.75;;;;;;;14.78;98.93;99793.16;5119813;28;20031;-63
2023/05/19 02:38:46;;;;;;;5.70;2.45;;;;;;;14.78;98.86;99801.16;5121630;28;20217;-63
2023/05/19 02:41:11;;;;;;;3.22;2.50;;;;;;;14.78;98.78;99796.66;5128344;28;20039;-63
2023/05/19 02:43:37;;;;;;;4.97;2.90;;;;;;;14.81;98.82;99793.59;5121623;27;20051;-63
2023/05/19 02:46:02;;;;;;;5.07;3.13;;;;;;;14.79;99.38;99800.97;5121289;27;20328;-64
2023/05/19 02:48:28;;;;;;;5.65;3.00;;;;;;;14.83;99.00;99788.09;5121406;28;20027;-63
2023/05/19 02:50:53;;;;;;;4.20;2.92;;;;;;;14.83;98.89;99796.09;5124691;28;20383;-63
2023/05/19 02:53:18;;;;;;;4.45;2.83;;;;;;;14.77;99.33;99804.81;5122370;28;20036;-63
2023/05/19 02:55:44;;;;;;;5.32;3.00;;;;;;;14.77;99.37;99797.66;5122984;27;20342;-63
2023/05/19 02:58:10;;;;;;;5.60;2.85;;;;;;;14.75;99.52;99798.84;5128476;27;20034;-63
2023/05/19 03:00:35;;;;;;;5.63;3.08;;;;;;;14.76;99.26;99808.50;5125032;27;20359;-63
2023/05/19 03:03:01;;;;;;;5.00;3.00;;;;;;;14.73;99.65;99801.72;5124194;27;20076;-63
2023/05/19 03:05:29;;;;;;;5.85;3.05;;;;;;;14.75;99.39;99799.69;5127132;27;20274;-63
2023/05/19 03:07:54;;;;;;;4.82;3.35;;;;;;;14.78;99.48;99807.31;5126080;27;20035;-63
2023/05/19 03:10:20;;;;;;;6.15;3.33;;;;;;;14.78;99.52;99806.47;5123690;27;20337;-63
2023/05/19 03:12:45;;;;;;;5.60;3.40;;;;;;;14.77;99.73;99824.31;5123898;27;20263;-63
2023/05/19 03:15:12;;;;;;;5.13;3.55;;;;;;;14.80;99.57;99820.44;5126779;27;20035;-63
2023/05/19 03:17:38;;;;;;;6.97;3.67;;;;;;;14.74;99.77;99811.38;5128371;27;20230;-63
2023/05/19 03:20:04;;;;;;;4.57;2.90;;;;;;;14.79;99.53;99814.28;5123739;27;20077;-63
2023/05/19 03:22:31;;;;;;;4.32;3.10;;;;;;;14.77;99.76;99823.50;5124855;27;20054;-63
2023/05/19 03:24:57;;;;;;;3.40;2.72;;;;;;;14.73;100.00;99822.22;5124857;27;20027;-63
2023/05/19 03:27:22;;;;;;;3.35;2.70;;;;;;;14.76;100.00;99813.84;5123996;27;20228;-63
2023/05/19 03:29:48;;;;;;;4.45;3.28;;;;;;;14.80;99.95;99834.59;5125998;27;20031;-63
2023/05/19 03:32:13;;;;;;;4.70;2.97;;;;;;;14.78;100.00;99827.81;5125166;27;20100;-63
2023/05/19 03:34:39;;;;;;;4.72;3.30;;;;;;;14.80;99.87;99839.94;5125666;27;20256;-63
2023/05/19 03:37:04;;;;;;;7.95;3.42;;;;;;;14.79;100.00;99830.28;5124223;27;20042;-63
2023/05/19 03:39:30;;;;;;;7.78;2.88;;;;;;;14.84;100.00;99843.88;5124889;27;20072;-63
2023/05/19 03:41:55;;;;;;;7.78;3.63;;;;;;;14.85;100.00;99832.19;5123550;27;20703;-63
2023/05/19 03:44:20;;;;;;;4.97;3.20;;;;;;;14.87;100.00;99834.69;5122158;27;20217;-63
2023/05/19 03:46:46;;;;;;;4.88;3.20;;;;;;;14.90;100.00;99824.47;5123753;27;20042;-63
2023/05/19 03:49:12;;;;;;;5.47;3.63;;;;;;;14.90;100.00;99840.47;5125640;27;20031;-63
2023/05/19 03:51:38;;;;;;;5.45;3.00;;;;;;;14.93;100.00;99836.59;5128028;27;20031;-63
2023/05/19 03:54:03;;;;;;;5.07;3.45;;;;;;;14.93;100.00;99845.41;5123641;27;20027;-63
2023/05/19 03:56:29;;;;;;;3.58;2.92;;;;;;;14.95;100.00;99854.06;5125431;27;20086;-63
2023/05/19 03:58:55;;;;;;;5.68;3.70;;;;;;;14.98;100.00;99845.69;5124202;27;20030;-63
2023/05/19 04:01:21;;;;;;;3.97;3.00;;;;;;;14.98;100.00;99853.69;5122255;27;20232;-63
2023/05/19 04:03:46;;;;;;;4.63;3.20;;;;;;;15.01;100.00;99847.16;5123823;27;20040;-63
2023/05/19 04:06:11;;;;;;;5.55;3.53;;;;;;;15.01;100.00;99842.63;5127418;27;20297;-63
2023/05/19 04:08:38;;;;;;;4.07;3.55;;;;;;;15.04;100.00;99846.78;5126143;27;20222;-63
2023/05/19 04:11:04;;;;;;;4.25;3.05;;;;;;;15.04;100.00;99844.09;5122637;27;20047;-63
2023/05/19 04:13:32;;;;;;;5.03;3.55;;;;;;;15.04;100.00;99851.28;5121359;27;20254;-63
2023/05/19 04:15:57;;;;;;;4.35;3.88;;;;;;;15.08;99.93;99857.88;5131890;27;20084;-63
2023/05/19 04:18:23;;;;;;;4.15;3.55;;;;;;;15.13;99.91;99855.47;5127311;27;20308;-63
2023/05/19 04:20:48;;;;;;;8.32;3.80;;;;;;;15.12;100.00;99860.00;5131683;27;20032;-63
2023/05/19 04:23:13;;;;;;;5.43;3.60;;;;;;;15.11;100.00;99855.66;5123608;27;20053;-63
2023/05/19 04:25:40;;;;;;;7.47;4.38;;;;;;;15.19;100.00;99857.41;5126132;27;20034;-63
2023/05/19 04:28:06;;;;;;;5.60;3.85;;;;;;;15.22;100.00;99859.69;5125124;27;20106;-63
2023/05/19 04:30:33;;;;;;;5.68;4.05;;;;;;;15.26;99.95;99868.97;5125454;27;20369;-64
2023/05/19 04:32:59;;;;;;;6.78;3.85;;;;;;;15.34;99.91;99866.16;5122533;27;20039;-64
2023/05/19 04:35:25;;;;;;;6.03;3.15;;;;;;;15.44;98.99;99864.00;5137013;27;20030;-63
2023/05/19 04:37:53;;;;;;;6.70;3.67;;;;;;;15.70;98.69;99873.34;5131435;27;20047;-63
2023/05/19 04:40:19;;;;;;;4.43;3.08;;;;;;;15.94;97.14;99868.41;5121065;27;20098;-64
2023/05/19 04:42:45;;;;;;;5.72;3.85;;;;;;;16.21;95.96;99882.78;5121340;27;20080;-63
2023/05/19 04:45:12;;;;;;;6.35;4.15;;;;;;;16.47;94.86;99879.47;5124299;27;20265;-63
2023/05/19 04:47:39;;;;;;;4.78;3.78;;;;;;;16.69;93.46;99887.44;5124618;27;20036;-63
2023/05/19 04:50:06;;;;;;;5.65;3.60;;;;;;;16.83;91.41;99876.63;5122315;27;20023;-64
2023/05/19 04:52:31;;;;;;;5.55;3.55;;;;;;;16.97;91.36;99874.81;5122675;27;20036;-63
2023/05/19 04:54:57;;;;;;;4.65;3.58;;;;;;;17.09;90.51;99885.78;5127229;27;20345;-64
2023/05/19 04:57:22;;;;;;;5.13;3.83;;;;;;;17.19;90.45;99880.88;5122284;27;20352;-63
2023/05/19 04:59:48;;;;;;;8.70;4.22;;;;;;;17.32;89.95;99878.22;5125720;27;20331;-63
2023/05/19 05:02:14;;;;;;;5.75;3.90;;;;;;;17.45;89.64;99894.31;5124100;27;20383;-63
2023/05/19 05:04:42;;;;;;;4.10;3.60;;;;;;;17.55;87.98;99889.38;5122438;27;20047;-63
2023/05/19 05:07:08;;;;;;;5.88;4.05;;;;;;;17.69;87.77;99881.44;5127209;27;20081;-63
2023/05/19 05:09:33;;;;;;;6.95;4.40;;;;;;;17.74;86.94;99887.81;5123388;27;20035;-63
2023/05/19 05:12:01;;;;;;;4.65;3.90;;;;;;;17.80;86.96;99895.03;5121079;27;20043;-63
2023/05/19 05:14:26;;;;;;;4.88;3.65;;;;;;;17.94;86.28;99895.03;5124003;27;20054;-63
2023/05/19 05:16:52;;;;;;;8.40;4.30;;;;;;;18.03;86.61;99891.13;5120861;27;20332;-64
2023/05/19 05:19:18;;;;;;;5.28;4.07;;;;;;;18.23;87.09;99891.94;5122734;27;20063;-64
2023/05/19 05:21:44;;;;;;;5.07;3.75;;;;;;;18.39;84.44;99896.84;5121753;27;20243;-63
2023/05/19 05:24:10;;;;;;;5.15;3.60;;;;;;;18.41;83.75;99894.78;5124146;27;20244;-63
2023/05/19 05:26:36;;;;;;;4.68;3.78;;;;;;;18.55;84.11;99897.44;5125718;27;20229;-63
2023/05/19 05:29:02;;;;;;;5.03;3.75;;;;;;;18.71;83.10;99892.47;5124193;27;20243;-64
2023/05/19 05:31:28;;;;;;;5.72;4.30;;;;;;;18.83;83.33;99907.94;5121701;27;20030;-63
2023/05/19 05:33:53;;;;;;;4.32;3.70;;;;;;;18.96;82.00;99908.72;5120743;27;20051;-63
2023/05/19 05:36:19;;;;;;;6.43;4.13;;;;;;;19.04;81.67;99913.03;5121494;27;20038;-64
2023/05/19 05:38:44;;;;;;;7.50;4.75;;;;;;;19.13;81.36;99915.25;5124838;27;20329;-63
2023/05/19 05:41:10;;;;;;;4.40;4.00;;;;;;;19.17;81.24;99917.50;5123827;27;20031;-64
2023/05/19 05:43:35;;;;;;;8.15;5.38;;;;;;;19.39;81.46;99922.34;5125220;27;20036;-63
2023/05/19 05:46:01;;;;;;;5.57;4.40;;;;;;;19.55;79.93;99933.66;5124857;27;20297;-64
2023/05/19 05:48:26;;;;;;;5.32;4.25;;;;;;;19.47;79.22;99918.59;5123604;27;20038;-64
2023/05/19 05:50:53;;;;;;;5.50;4.28;;;;;;;19.61;80.25;99927.41;5124879;27;20376;-64
2023/05/19 05:53:20;;;;;;;6.78;4.78;;;;;;;19.82;80.41;99929.78;5122869;27;20074;-63
2023/05/19 05:55:46;;;;;;;6.18;4.22;;;;;;;19.91;78.36;99923.09;5120327;27;20031;-63
2023/05/19 05:58:14;;;;;;;4.88;4.38;;;;;;;20.04;78.36;99932.94;5123959;27;20057;-64
2023/05/19 06:00:44;;;;;;;6.75;5.05;;;;;;;20.11;78.89;99933.69;5122162;27;20039;-64
2023/05/19 06:03:10;;;;;;;7.95;4.60;;;;;;;20.08;78.01;99932.28;5122884;27;20138;-63
2023/05/19 06:05:36;;;;;;;6.90;4.55;;;;;;;19.73;79.38;99941.81;5119911;27;20206;-64
2023/05/19 06:08:02;;;;;;;6.07;4.55;;;;;;;19.41;80.48;99943.63;5121626;27;20039;-63
2023/05/19 06:10:28;;;;;;;6.68;4.63;;;;;;;19.14;80.94;99946.44;5124962;27;20035;-64
2023/05/19 06:12:53;;;;;;;6.15;4.65;;;;;;;19.01;82.42;99953.69;5122222;27;20042;-63
2023/05/19 06:15:20;;;;;;;6.18;5.15;;;;;;;18.90;83.51;99957.03;5121943;27;20351;-63
2023/05/19 06:17:46;;;;;;;7.00;5.45;;;;;;;19.20;84.00;99951.97;5124619;28;20039;-64
2023/05/19 06:20:12;;;;;;;6.95;5.18;;;;;;;19.25;83.97;99962.91;5121395;28;20297;-63
2023/05/19 06:22:37;;;;;;;9.90;5.43;;;;;;;19.22;85.07;99961.47;5119889;28;20495;-64
2023/05/19 06:25:03;;;;;;;7.35;5.07;;;;;;;19.11;85.36;99962.13;5119680;28;20035;-63
2023/05/19 06:27:29;;;;;;;7.15;5.43;;;;;;;19.16;85.01;99966.88;5122617;28;20050;-63
2023/05/19 06:29:54;;;;;;;8.35;5.35;;;;;;;19.60;84.51;99963.38;5123824;27;20032;-64
2023/05/19 06:32:19;;;;;;;8.15;5.75;;;;;;;19.93;83.92;99963.19;5124755;27;21484;-64
2023/05/19 06:34:45;;;;;;;8.32;5.40;;;;;;;19.84;82.41;99968.00;5129486;27;20486;-63
2023/05/19 06:37:13;;;;;;;9.65;6.43;;;;;;;19.79;83.45;99961.66;5136088;27;20080;-63
2023/05/19 06:39:39;;;;;;;7.10;5.50;;;;;;;20.09;81.96;99965.34;5136289;27;20038;-63
2023/05/19 06:42:04;;;;;;;6.80;5.30;;;;;;;20.32;82.53;99959.38;5134709;27;20027;-63
2023/05/19 06:44:29;;;;;;;7.93;5.20;;;;;;;20.25;81.61;99959.44;5136815;27;20072;-64
2023/05/19 06:46:55;;;;;;;9.00;6.05;;;;;;;20.04;81.73;99954.44;5137211;27;20034;-64
2023/05/19 06:49:20;;;;;;;7.47;5.53;;;;;;;20.29;82.25;99959.81;5135873;27;20076;-64
2023/05/19 06:51:46;;;;;;;9.18;5.80;;;;;;;20.25;81.82;99945.16;5135234;27;20035;-64
2023/05/19 06:54:14;;;;;;;7.20;5.80;;;;;;;20.27;83.96;99953.84;5134969;27;20027;-64
2023/05/19 06:56:40;;;;;;;6.82;5.32;;;;;;;20.24;83.98;99957.78;5135808;27;20267;-64
2023/05/19 06:59:05;;;;;;;8.68;6.07;;;;;;;20.22;83.97;99957.19;5140545;27;20358;-64
2023/05/19 07:01:31;;;;;;;7.63;5.75;;;;;;;20.28;84.45;99953.63;5140388;27;20042;-64
2023/05/19 07:03:56;;;;;;;9.25;7.22;;;;;;;20.36;84.03;99953.34;5141810;27;20034;-63
2023/05/19 07:06:21;;;;;;;7.30;6.32;;;;;;;20.39;82.09;99955.63;5142316;27;20046;-63
2023/05/19 07:08:47;;;;;;;8.00;6.18;;;;;;;20.53;81.92;99950.13;5140515;27;20031;-63
2023/05/19 07:11:12;;;;;;;9.23;6.53;;;;;;;20.62;83.06;99954.16;5138747;27;20258;-64
2023/05/19 07:13:38;;;;;;;9.23;6.03;;;;;;;21.03;82.92;99950.84;5139264;27;20031;-64
2023/05/19 07:16:03;;;;;;;9.27;5.80;;;;;;;21.49;79.48;99946.78;5139087;27;20023;-64
2023/05/19 07:18:32;;;;;;;8.13;6.18;;;;;;;21.82;76.44;99943.59;5138982;27;20035;-64
2023/05/19 07:20:57;;;;;;;6.13;5.53;;;;;;;22.14;77.49;99942.31;5138208;27;20066;-63
2023/05/19 07:23:23;;;;;;;7.22;6.00;;;;;;;22.40;75.39;99937.53;5139392;27;20057;-64
2023/05/19 07:25:49;;;;;;;7.70;5.88;;;;;;;22.45;74.01;99937.66;5140096;27;20039;-64
2023/05/19 07:28:14;;;;;;;7.88;5.95;;;;;;;22.53;74.04;99940.00;5140087;27;20031;-64
2023/05/19 07:30:40;;;;;;;8.25;6.18;;;;;;;22.69;74.21;99938.44;5140190;27;20309;-64
2023/05/19 07:33:05;;;;;;;8.88;6.20;;;;;;;22.87;74.54;99946.44;5140015;27;20100;-64
2023/05/19 07:35:31;;;;;;;12.20;7.55;;;;;;;23.00;72.33;99953.50;5140401;27;20027;-64
2023/05/19 07:37:56;;;;;;;8.65;6.90;;;;;;;23.13;68.68;99947.81;5141357;27;20050;-64
2023/05/19 07:40:22;;;;;;;8.60;6.80;;;;;;;23.10;70.58;99948.31;5139976;27;20031;-64
2023/05/19 07:42:48;;;;;;;8.90;6.70;;;;;;;23.12;69.62;99957.81;5140270;27;20043;-64
2023/05/19 07:45:14;;;;;;;8.60;6.35;;;;;;;23.34;70.86;99955.28;5141133;27;20037;-64
2023/05/19 07:47:39;;;;;;;12.15;6.97;;;;;;;23.53;69.03;99954.03;5140784;27;20217;-64
2023/05/19 07:50:06;;;;;;;9.65;6.80;;;;;;;23.61;68.10;99950.16;5140446;27;20030;-64
2023/05/19 07:52:31;;;;;;;9.02;6.85;;;;;;;23.56;68.92;99961.69;5140455;27;20062;-64
2023/05/19 07:54:58;;;;;;;10.43;7.88;;;;;;;23.68;67.35;99961.63;5140656;27;20041;-64
2023/05/19 07:57:23;;;;;;;8.82;7.10;;;;;;;23.78;66.40;99953.69;5140016;27;20031;-64
2023/05/19 07:59:49;;;;;;;8.23;6.70;;;;;;;23.92;66.50;99956.91;5139896;27;20031;-64
2023/05/19 08:02:14;;;;;;;7.30;6.38;;;;;;;23.85;66.10;99958.94;5140637;27;20066;-64
2023/05/19 08:04:40;;;;;;;10.95;7.10;;;;;;;23.83;67.76;99953.78;5140171;27;20035;-64
2023/05/19 08:07:05;;;;;;;9.85;7.15;;;;;;;23.81;67.73;99958.63;5140367;27;20031;-64
2023/05/19 08:09:31;;;;;;;13.57;7.20;;;;;;;23.83;69.30;99958.38;5140649;27;20027;-64
2023/05/19 08:11:56;;;;;;;10.75;7.00;;;;;;;23.99;65.99;99960.31;5139726;27;20123;-64
2023/05/19 08:14:22;;;;;;;7.85;6.72;;;;;;;24.03;64.42;99961.47;5140071;27;20343;-64
2023/05/19 08:16:48;;;;;;;14.30;7.18;;;;;;;24.06;65.63;99960.97;5140680;27;20041;-64
2023/05/19 08:19:14;;;;;;;9.15;7.10;;;;;;;24.36;66.23;99951.75;5135566;27;20034;-64
2023/05/19 08:21:41;;;;;;;10.07;7.90;;;;;;;24.42;65.24;99948.88;5135080;27;20144;-64
2023/05/19 08:24:07;;;;;;;9.65;7.03;;;;;;;24.33;62.78;99955.75;5133997;27;20077;-64
2023/05/19 08:26:32;;;;;;;9.18;6.88;;;;;;;24.34;60.99;99962.00;5134517;27;20027;-64
2023/05/19 08:28:58;;;;;;;8.50;7.15;;;;;;;24.50;62.34;99961.16;5133767;27;20069;-64
2023/05/19 08:31:23;;;;;;;10.52;7.57;;;;;;;24.58;63.88;99949.91;5135261;27;20031;-64
2023/05/19 08:33:49;;;;;;;10.43;7.53;;;;;;;24.56;62.96;99953.94;5132836;27;20027;-64
2023/05/19 08:36:14;;;;;;;10.48;7.07;;;;;;;24.65;61.74;99955.97;5133324;27;20034;-64
2023/05/19 08:38:40;;;;;;;8.63;6.85;;;;;;;24.90;62.25;99966.34;5134802;27;20327;-64
2023/05/19 08:41:05;;;;;;;12.85;7.22;;;;;;;24.97;62.50;99958.91;5133986;27;20038;-64
2023/05/19 08:43:31;;;;;;;12.38;8.35;;;;;;;24.99;62.39;99964.06;5133272;27;20055;-64
2023/05/19 08:45:58;;;;;;;15.65;8.15;;;;;;;25.01;62.83;99960.03;5135310;27;20099;-64
2023/05/19 08:48:25;;;;;;;10.70;7.28;;;;;;;25.10;61.28;99957.72;5135563;27;20031;-63
2023/05/19 08:51:22;;;;;;;10.38;7.22;;;;;;;25.16;61.65;99953.16;5134436;27;20060;-64
2023/05/19 08:53:51;;;;;;;12.13;7.50;;;;;;;25.13;62.04;99960.72;5126343;27;20046;-64
2023/05/19 08:56:20;;;;;;;8.98;6.90;;;;;;;25.23;57.33;99949.19;5133860;27;20035;-64
2023/05/19 08:58:48;;;;;;;10.18;7.18;;;;;;;25.37;58.35;99961.28;5134527;27;20095;-64
2023/05/19 09:01:17;;;;;;;8.60;7.20;;;;;;;25.29;57.09;99941.94;5133300;27;20046;-64
2023/05/19 09:03:48;;;;;;;12.05;8.10;;;;;;;25.13;57.23;99955.31;5133389;27;20037;-64
2023/05/19 09:06:13;;;;;;;13.63;8.05;;;;;;;25.25;56.10;99954.38;5133844;27;20027;-64
2023/05/19 09:08:41;;;;;;;9.77;7.40;;;;;;;25.29;56.35;99942.75;5133026;27;20051;-64
2023/05/19 09:11:08;;;;;;;12.55;7.72;;;;;;;25.44;56.11;99951.06;5132328;27;20347;-64
2023/05/19 09:13:33;;;;;;;13.02;7.80;;;;;;;25.45;55.99;99952.72;5133697;27;20047;-64
2023/05/19 09:16:00;;;;;;;10.32;7.97;;;;;;;25.55;54.39;99945.75;5132908;27;20206;-64
2023/05/19 09:18:26;;;;;;;11.02;8.45;;;;;;;25.44;55.97;99942.94;5133764;27;20036;-64
2023/05/19 09:21:01;;;;;;;9.48;7.15;;;;;;;25.41;53.61;99948.88;5133654;27;20072;-64
2023/05/19 09:23:33;;;;;;;9.80;7.65;;;;;;;25.24;51.38;99947.31;5133633;27;20393;-64
2023/05/19 09:26:03;;;;;;;11.00;7.75;;;;;;;25.18;55.11;99948.31;5134927;27;20030;-64
2023/05/19 09:28:31;;;;;;;9.40;7.13;;;;;;;25.29;54.12;99942.75;5133906;27;20036;-64
2023/05/19 09:31:05;;;;;;;9.65;7.90;;;;;;;25.26;52.81;99940.56;5133442;27;20027;-64
2023/05/19 09:33:33;;;;;;;8.93;7.60;;;;;;;25.19;51.29;99947.25;5133804;27;20031;-64
2023/05/19 09:35:58;;;;;;;9.10;7.35;;;;;;;25.20;52.16;99938.88;5133037;27;20023;-64
2023/05/19 09:38:25;;;;;;;8.60;7.60;;;;;;;25.16;53.31;99945.88;5134521;27;20346;-64
2023/05/19 09:40:52;;;;;;;10.48;7.68;;;;;;;24.93;52.53;99937.94;5130862;27;20031;-64
2023/05/19 09:43:18;;;;;;;13.68;8.13;;;;;;;24.76;55.48;99933.38;5133323;27;20045;-64
2023/05/19 09:45:43;;;;;;;11.15;8.82;;;;;;;24.61;55.01;99929.63;5133472;27;20326;-64
2023/05/19 09:48:09;;;;;;;13.63;8.98;;;;;;;24.49;55.51;99935.97;5132256;27;20033;-64
2023/05/19 09:50:34;;;;;;;12.25;8.82;;;;;;;24.18;55.83;99945.47;5130678;27;20038;-64
2023/05/19 09:53:00;;;;;;;11.98;8.15;;;;;;;23.97;56.85;99943.50;5131761;27;20043;-64
2023/05/19 09:55:28;;;;;;;10.88;7.97;;;;;;;23.88;56.88;99936.84;5133478;27;20036;-64
2023/05/19 09:57:55;;;;;;;12.18;8.27;;;;;;;23.79;56.59;99939.13;5131506;27;20061;-64
2023/05/19 10:00:22;;;;;;;10.43;8.57;;;;;;;23.47;56.56;99938.78;5132513;27;20034;-64
2023/05/19 10:02:49;;;;;;;15.18;9.27;;;;;;;23.42;57.46;99943.25;5130901;27;20053;-64
2023/05/19 10:05:19;;;;;;;11.73;8.88;;;;;;;23.39;58.73;99930.22;5132801;27;20087;-64
2023/05/19 10:07:53;;;;;;;11.10;8.02;;;;;;;23.31;53.60;99938.72;5132797;27;20042;-64
2023/05/19 10:10:19;;;;;;;10.15;8.00;;;;;;;23.31;55.28;99930.63;5128322;27;20086;-64
2023/05/19 10:12:45;;;;;;;10.15;8.38;;;;;;;23.42;55.81;99938.69;5132291;27;20046;-64
2023/05/19 10:15:13;;;;;;;11.52;8.30;;;;;;;23.33;55.85;99928.50;5132892;27;20371;-64
2023/05/19 10:17:40;;;;;;;13.85;9.18;;;;;;;23.41;53.26;99931.63;5131480;27;20031;-64
2023/05/19 10:20:15;;;;;;;10.25;8.25;;;;;;;23.59;51.70;99922.53;5134717;27;20098;-64
2023/05/19 10:22:43;;;;;;;12.30;7.88;;;;;;;23.73;54.86;99921.16;5133079;27;20039;-64
2023/05/19 10:25:13;;;;;;;11.02;8.65;;;;;;;23.87;53.70;99905.44;5130434;27;20047;-64
2023/05/19 10:27:45;;;;;;;14.55;9.30;;;;;;;23.98;53.98;99901.88;5133927;27;20065;-64
2023/05/19 10:30:25;;;;;;;13.73;8.00;;;;;;;24.13;54.48;99904.00;5132766;27;20380;-63
2023/05/19 10:32:53;;;;;;;12.35;8.65;;;;;;;24.21;53.13;99903.59;5133091;27;20035;-63
2023/05/19 10:35:25;;;;;;;12.27;7.80;;;;;;;24.24;51.09;99908.50;5132356;27;20243;-63
2023/05/19 10:38:11;;;;;;;12.60;8.45;;;;;;;24.14;50.29;99902.94;5132653;27;20061;-63
2023/05/19 10:40:42;;;;;;;11.27;8.13;;;;;;;24.10;53.22;99908.03;5133374;27;20245;-63
2023/05/19 10:43:38;;;;;;;10.00;8.10;;;;;;;24.05;52.57;99905.25;5131160;27;20038;-62
2023/05/19 10:46:05;;;;;;;13.52;9.07;;;;;;;24.09;56.38;99909.09;5132144;27;20356;-63
2023/05/19 10:48:35;;;;;;;13.20;9.05;;;;;;;24.15;58.95;99910.81;5132144;27;20034;-63
2023/05/19 10:51:01;;;;;;;16.30;8.70;;;;;;;24.24;57.11;99910.38;5131650;27;20047;-63
2023/05/19 10:53:33;;;;;;;12.20;8.73;;;;;;;24.20;55.68;99912.78;5132533;27;20063;-63
2023/05/19 10:56:02;;;;;;;11.50;8.63;;;;;;;24.20;54.92;99910.06;5113453;27;20100;-63
2023/05/19 10:58:43;;;;;;;11.93;8.23;;;;;;;24.19;54.08;99903.84;5132192;27;20061;-63
2023/05/19 11:01:13;;;;;;;10.70;8.30;;;;;;;24.19;56.47;99906.53;5131580;27;20054;-63
2023/05/19 11:03:50;;;;;;;10.80;8.52;;;;;;;24.23;59.90;99900.63;5128932;27;20043;-63
2023/05/19 11:06:20;;;;;;;10.80;8.40;;;;;;;24.26;56.52;99902.84;5131907;27;20031;-63
2023/05/19 11:08:46;;;;;;;12.68;7.82;;;;;;;24.29;52.57;99902.38;5130918;27;20031;-63
2023/05/19 11:11:16;;;;;;;9.27;6.90;;;;;;;24.27;48.82;99910.75;5132725;27;20393;-63
2023/05/19 11:13:52;;;;;;;12.70;6.90;;;;;;;24.02;51.17;99924.66;5132214;27;20455;-63
2023/05/19 11:16:25;;;;;;;11.27;6.28;;;;;;;23.04;56.65;99927.66;5135345;27;20030;-63
2023/05/19 11:18:53;;;;;;;8.67;6.93;;;;;;;22.89;59.27;99947.06;5135589;27;20411;-63
2023/05/19 11:21:19;;;;;;;8.95;7.18;;;;;;;23.08;57.53;99918.00;5135928;27;20190;-63
2023/05/19 11:23:44;;;;;;;8.25;6.28;;;;;;;23.30;57.05;99910.06;5135422;27;20071;-63
2023/05/19 11:26:12;;;;;;;10.35;7.03;;;;;;;23.53;58.36;99907.25;5135403;27;20026;-63
2023/05/19 11:28:37;;;;;;;9.90;6.47;;;;;;;23.69;57.20;99916.50;5134902;27;20031;-63
2023/05/19 11:31:06;;;;;;;9.20;7.07;;;;;;;23.88;58.81;99902.50;5136003;27;20043;-63